Time;durP1;ratioP1;P1;durP2;ratioP2;P2;SDS_P1;SDS_P2;PMS_P1;PMS_P2;Temp;Humidity;BMP_temperature;BMP_pressure;BME280_temperature;BME280_humidity;BME280_pressure;Samples;Min_cycle;Max_cycle;Signal;HPM_P1;HPM_P2
2021/06/17 00:00:55;;;;;;;8.60;6.40;;;22.40;95.00;;;;;;5150801;23;20531;-87
2021/06/17 00:02:59;;;;;;;7.27;6.57;;;22.40;95.20;;;;;;5150701;23;20513;-86
2021/06/17 00:05:04;;;;;;;9.60;6.50;;;22.40;94.90;;;;;;5150774;23;20432;-86
2021/06/17 00:07:11;;;;;;;11.80;6.80;;;22.40;95.00;;;;;;5150641;23;20543;-86
2021/06/17 00:09:14;;;;;;;7.07;6.37;;;22.30;95.00;;;;;;5150740;23;20425;-87
2021/06/17 00:11:17;;;;;;;8.80;6.43;;;22.40;94.70;;;;;;5150228;23;20451;-86
2021/06/17 00:13:23;;;;;;;7.43;6.50;;;22.40;94.70;;;;;;5149874;23;20429;-87
2021/06/17 00:15:28;;;;;;;6.53;5.87;;;22.30;94.70;;;;;;5150138;23;20428;-87
2021/06/17 00:17:31;;;;;;;6.90;6.30;;;22.30;94.90;;;;;;5149929;23;20417;-86
2021/06/17 00:19:34;;;;;;;7.73;6.40;;;22.30;94.70;;;;;;5150836;23;20425;-87
2021/06/17 00:21:39;;;;;;;7.50;6.40;;;22.30;94.80;;;;;;5150196;23;20445;-87
2021/06/17 00:23:42;;;;;;;6.63;6.03;;;22.30;94.80;;;;;;5150257;23;20431;-87
2021/06/17 00:25:45;;;;;;;6.23;5.73;;;22.20;95.00;;;;;;5151406;23;20420;-86
2021/06/17 00:27:48;;;;;;;8.60;6.00;;;22.20;95.00;;;;;;5149815;23;20535;-86
2021/06/17 00:29:51;;;;;;;6.83;6.13;;;22.10;95.00;;;;;;5150054;23;20437;-87
2021/06/17 00:31:54;;;;;;;6.87;5.80;;;22.20;95.00;;;;;;5151572;23;20463;-86
2021/06/17 00:33:57;;;;;;;6.40;5.90;;;22.20;95.00;;;;;;5142241;23;20436;-86
2021/06/17 00:36:00;;;;;;;7.37;6.67;;;22.10;95.00;;;;;;5149814;23;20894;-86
2021/06/17 00:38:05;;;;;;;6.73;6.13;;;22.10;95.00;;;;;;5150090;23;20443;-85
2021/06/17 00:40:11;;;;;;;8.30;6.80;;;22.10;95.00;;;;;;5150868;23;20516;-86
2021/06/17 00:42:14;;;;;;;6.80;6.20;;;22.10;95.00;;;;;;5150020;23;20437;-85
2021/06/17 00:44:17;;;;;;;6.50;5.90;;;22.10;94.80;;;;;;5150967;23;20512;-88
2021/06/17 00:46:20;;;;;;;6.80;6.20;;;22.00;95.00;;;;;;5151605;23;20761;-87
2021/06/17 00:48:23;;;;;;;6.50;6.00;;;22.00;95.10;;;;;;5151301;23;20991;-88
2021/06/17 00:50:28;;;;;;;7.90;6.03;;;22.00;95.00;;;;;;5151833;23;20520;-88
2021/06/17 00:52:31;;;;;;;7.30;5.97;;;22.00;95.20;;;;;;5151222;23;20431;-87
2021/06/17 00:54:36;;;;;;;6.97;6.37;;;22.00;95.20;;;;;;5150259;23;20803;-88
2021/06/17 00:56:40;;;;;;;7.83;6.00;;;22.00;95.20;;;;;;5151454;23;20439;-87
2021/06/17 00:58:43;;;;;;;6.43;5.83;;;21.90;95.30;;;;;;5150328;23;20973;-87
2021/06/17 01:00:46;;;;;;;6.70;6.00;;;21.90;95.40;;;;;;5155294;23;20451;-87
2021/06/17 01:02:49;;;;;;;7.03;6.10;;;21.90;95.30;;;;;;5150006;23;20459;-86
2021/06/17 01:04:52;;;;;;;6.73;5.97;;;21.90;95.30;;;;;;5150186;23;20941;-86
2021/06/17 01:06:56;;;;;;;6.17;5.67;;;21.80;95.50;;;;;;5149525;23;20924;-87
2021/06/17 01:09:05;;;;;;;6.00;5.50;;;21.80;95.50;;;;;;5149561;23;20421;-86
2021/06/17 01:11:18;;;;;;;6.63;6.03;;;21.90;95.10;;;;;;5149413;23;20941;-86
2021/06/17 01:13:29;;;;;;;6.43;5.83;;;21.80;95.10;;;;;;5149325;23;20412;-86
2021/06/17 01:15:43;;;;;;;6.80;5.43;;;21.80;95.30;;;;;;5149423;23;20420;-86
2021/06/17 01:17:55;;;;;;;6.10;5.60;;;21.70;95.20;;;;;;5149149;23;20432;-85
2021/06/17 01:20:08;;;;;;;6.00;5.50;;;21.80;95.30;;;;;;5149275;23;20437;-86
2021/06/17 01:22:22;;;;;;;7.20;5.40;;;21.70;95.30;;;;;;5149520;23;20449;-87
2021/06/17 01:24:33;;;;;;;6.53;5.60;;;21.80;95.10;;;;;;5149770;23;21212;-87
2021/06/17 01:26:59;;;;;;;7.33;5.83;;;21.70;95.10;;;;;;5150152;23;20926;-87
2021/06/17 01:29:05;;;;;;;8.10;5.97;;;21.60;95.10;;;;;;5149387;23;20404;-87
2021/06/17 01:31:11;;;;;;;6.80;5.80;;;21.70;95.20;;;;;;5150138;23;20440;-86
2021/06/17 01:33:17;;;;;;;6.27;5.77;;;21.60;95.30;;;;;;5149288;23;20437;-86
2021/06/17 01:35:23;;;;;;;6.17;5.67;;;21.60;95.40;;;;;;5149561;23;20421;-87
2021/06/17 01:37:28;;;;;;;7.10;5.70;;;21.60;95.20;;;;;;5149710;23;20440;-87
2021/06/17 01:39:32;;;;;;;5.70;5.20;;;21.60;95.20;;;;;;5150503;23;20412;-86
2021/06/17 01:41:39;;;;;;;6.23;5.53;;;21.50;95.50;;;;;;5149626;23;20863;-88
2021/06/17 01:43:44;;;;;;;6.13;5.53;;;21.50;95.60;;;;;;5149987;23;20728;-87
2021/06/17 01:45:50;;;;;;;6.60;5.40;;;21.40;95.50;;;;;;5149508;23;20447;-87
2021/06/17 01:47:54;;;;;;;6.23;5.63;;;21.40;95.40;;;;;;5149250;23;20975;-86
2021/06/17 01:49:58;;;;;;;8.57;6.00;;;21.40;95.40;;;;;;5150080;23;20421;-88
2021/06/17 01:52:01;;;;;;;6.90;5.60;;;21.50;95.40;;;;;;5150434;23;20529;-87
2021/06/17 01:54:06;;;;;;;6.30;5.70;;;21.40;95.30;;;;;;5150879;23;21115;-88
2021/06/17 01:56:10;;;;;;;6.60;5.90;;;21.30;95.40;;;;;;5150274;23;20448;-86
2021/06/17 01:58:15;;;;;;;6.27;5.67;;;21.40;95.50;;;;;;5150267;23;20424;-87
2021/06/17 02:00:19;;;;;;;10.37;6.23;;;21.40;95.20;;;;;;5150499;23;20519;-86
2021/06/17 02:02:26;;;;;;;12.30;8.77;;;21.30;95.30;;;;;;5152353;23;20439;-88
2021/06/17 02:04:30;;;;;;;6.50;5.90;;;21.30;95.30;;;;;;5156515;23;20409;-87
2021/06/17 02:06:35;;;;;;;8.30;5.70;;;21.40;95.20;;;;;;5151210;23;20425;-88
2021/06/17 02:08:39;;;;;;;6.03;5.43;;;21.40;94.90;;;;;;5150598;23;20476;-86
2021/06/17 02:10:43;;;;;;;7.13;5.70;;;21.30;95.10;;;;;;5150020;23;20449;-86
2021/06/17 02:12:47;;;;;;;7.17;5.37;;;21.30;95.10;;;;;;5150075;23;20429;-88
2021/06/17 02:14:52;;;;;;;6.30;5.60;;;21.20;95.20;;;;;;5149607;23;20434;-87
2021/06/17 02:16:57;;;;;;;6.33;5.63;;;21.20;95.20;;;;;;5141890;23;20424;-87
2021/06/17 02:19:03;;;;;;;6.73;5.70;;;21.20;95.40;;;;;;5149482;23;20421;-87
2021/06/17 02:21:09;;;;;;;5.97;5.47;;;21.20;95.30;;;;;;5150071;23;20464;-87
2021/06/17 02:23:14;;;;;;;6.27;5.67;;;21.20;95.20;;;;;;5150284;23;20440;-88
2021/06/17 02:25:18;;;;;;;6.27;5.60;;;21.20;95.20;;;;;;5150327;23;20432;-87
2021/06/17 02:27:27;;;;;;;7.40;5.80;;;21.10;95.00;;;;;;5150741;23;20508;-88
2021/06/17 02:29:35;;;;;;;7.60;5.93;;;21.10;95.40;;;;;;5151306;23;20948;-88
2021/06/17 02:31:41;;;;;;;5.83;5.33;;;21.10;95.40;;;;;;5150908;22;20454;-82
2021/06/17 02:33:48;;;;;;;6.63;5.37;;;21.10;95.40;;;;;;5176227;22;20908;-82
2021/06/17 02:35:56;;;;;;;6.00;5.03;;;21.10;95.50;;;;;;5176236;22;20447;-83
2021/06/17 02:38:03;;;;;;;6.73;5.70;;;21.10;95.40;;;;;;5176121;23;20423;-82
2021/06/17 02:40:08;;;;;;;6.00;5.50;;;21.00;95.60;;;;;;5176030;22;20477;-83
2021/06/17 02:42:31;;;;;;;6.17;5.13;;;21.00;95.60;;;;;;5176048;22;20447;-82
2021/06/17 02:44:35;;;;;;;5.97;5.37;;;21.00;95.60;;;;;;5176475;22;20820;-82
2021/06/17 02:46:39;;;;;;;6.83;5.40;;;20.90;95.50;;;;;;5177647;23;20432;-82
2021/06/17 02:48:49;;;;;;;5.53;4.87;;;20.90;95.70;;;;;;5175979;23;20443;-82
2021/06/17 02:50:54;;;;;;;6.20;5.33;;;20.90;95.80;;;;;;5149453;23;20452;-82
2021/06/17 02:52:59;;;;;;;9.57;5.53;;;20.90;95.70;;;;;;5178381;22;20513;-82
2021/06/17 02:55:02;;;;;;;6.83;5.40;;;20.90;95.70;;;;;;5178560;23;20513;-84
2021/06/17 02:57:13;;;;;;;6.30;5.63;;;20.90;95.50;;;;;;5178646;22;20430;-82
2021/06/17 02:59:29;;;;;;;6.17;5.57;;;20.90;95.60;;;;;;5170303;23;20491;-82
2021/06/17 03:01:40;;;;;;;5.37;4.87;;;20.80;95.60;;;;;;5170568;22;20454;-82
2021/06/17 03:03:47;;;;;;;6.07;5.17;;;20.80;95.60;;;;;;5178358;23;20404;-82
2021/06/17 03:05:57;;;;;;;7.87;5.90;;;20.70;95.70;;;;;;5177358;23;20491;-82
2021/06/17 03:08:06;;;;;;;6.90;5.20;;;20.70;95.70;;;;;;5176895;22;20447;-82
2021/06/17 03:10:12;;;;;;;5.90;5.40;;;20.80;95.70;;;;;;5169135;23;20487;-83
2021/06/17 03:12:17;;;;;;;5.80;5.30;;;20.80;95.50;;;;;;5168308;22;20454;-82
2021/06/17 03:14:24;;;;;;;5.73;5.13;;;20.80;95.50;;;;;;5177991;22;20499;-82
2021/06/17 03:16:30;;;;;;;5.77;5.17;;;20.80;95.40;;;;;;5177887;23;20414;-82
2021/06/17 03:18:39;;;;;;;6.40;5.00;;;20.80;95.60;;;;;;5177410;22;20420;-82
2021/06/17 03:20:44;;;;;;;6.60;5.17;;;20.70;95.80;;;;;;5177774;22;20439;-82
2021/06/17 03:22:53;;;;;;;6.50;5.83;;;20.60;95.90;;;;;;5176617;22;20506;-82
2021/06/17 03:25:01;;;;;;;5.40;4.90;;;20.70;95.70;;;;;;5167975;23;20922;-82
2021/06/17 03:27:07;;;;;;;5.90;4.67;;;20.70;95.50;;;;;;5177017;23;20767;-82
2021/06/17 03:29:12;;;;;;;5.90;5.40;;;20.70;95.50;;;;;;5177201;22;20463;-82
2021/06/17 03:31:18;;;;;;;6.17;5.17;;;20.80;95.30;;;;;;5167971;22;20450;-82
2021/06/17 03:33:23;;;;;;;6.73;5.30;;;20.70;95.40;;;;;;5177601;23;20411;-82
2021/06/17 03:35:28;;;;;;;5.77;5.27;;;20.70;95.50;;;;;;5176653;22;20447;-83
2021/06/17 03:37:32;;;;;;;5.33;4.80;;;20.60;95.70;;;;;;5177768;22;20722;-82
2021/06/17 03:39:38;;;;;;;5.67;4.90;;;20.70;95.30;;;;;;5179156;23;20429;-82
2021/06/17 03:41:41;;;;;;;6.27;5.00;;;20.70;95.30;;;;;;5171032;22;20486;-82
2021/06/17 03:43:46;;;;;;;5.30;4.80;;;20.70;95.50;;;;;;5179109;22;20515;-83
2021/06/17 03:45:50;;;;;;;6.30;4.90;;;20.70;95.80;;;;;;5179021;22;20440;-81
2021/06/17 03:47:54;;;;;;;7.70;5.17;;;20.70;95.40;;;;;;5170482;23;21013;-82
2021/06/17 03:49:57;;;;;;;5.97;5.37;;;20.70;95.50;;;;;;5178871;22;20466;-82
2021/06/17 03:52:01;;;;;;;6.40;5.80;;;20.70;95.60;;;;;;5178931;22;20979;-82
2021/06/17 03:54:05;;;;;;;5.63;5.10;;;20.70;95.60;;;;;;5178650;23;20424;-82
2021/06/17 03:56:10;;;;;;;7.47;6.67;;;20.70;95.60;;;;;;5177615;23;20422;-82
2021/06/17 03:58:13;;;;;;;9.40;5.20;;;20.70;95.50;;;;;;5178165;23;20416;-82
2021/06/17 04:00:17;;;;;;;4.93;4.50;;;20.80;95.30;;;;;;5170285;23;20428;-82
2021/06/17 04:02:20;;;;;;;7.20;5.30;;;20.60;95.60;;;;;;5179213;22;20450;-83
2021/06/17 04:04:24;;;;;;;6.23;5.03;;;20.70;95.80;;;;;;5179254;22;20478;-82
2021/06/17 04:06:32;;;;;;;6.23;5.63;;;20.60;95.80;;;;;;5179681;23;20671;-82
2021/06/17 04:08:39;;;;;;;5.80;5.20;;;20.60;95.80;;;;;;5170671;23;20424;-82
2021/06/17 04:10:43;;;;;;;7.20;5.80;;;20.70;95.70;;;;;;5180244;22;20475;-82
2021/06/17 04:12:49;;;;;;;6.07;5.10;;;20.70;95.70;;;;;;5178860;23;20579;-82
2021/06/17 04:14:58;;;;;;;5.57;5.07;;;20.70;95.80;;;;;;5179209;23;20408;-82
2021/06/17 04:17:03;;;;;;;5.67;5.17;;;20.80;95.80;;;;;;5177451;22;20499;-82
2021/06/17 04:19:06;;;;;;;8.20;5.10;;;20.70;95.60;;;;;;5177436;23;20948;-82
2021/06/17 04:21:09;;;;;;;9.17;5.90;;;20.70;95.40;;;;;;5177793;22;20447;-82
2021/06/17 04:23:17;;;;;;;9.90;5.67;;;20.70;95.80;;;;;;5178076;23;20424;-82
2021/06/17 04:25:21;;;;;;;6.10;5.10;;;20.70;95.70;;;;;;5169813;23;20737;-82
2021/06/17 04:27:26;;;;;;;6.07;5.47;;;20.80;95.80;;;;;;5177693;23;20440;-82
2021/06/17 04:29:33;;;;;;;7.43;5.50;;;20.80;95.60;;;;;;5177986;23;20436;-82
2021/06/17 04:31:37;;;;;;;5.67;5.17;;;20.90;95.70;;;;;;5177809;22;20531;-82
2021/06/17 04:33:44;;;;;;;6.50;5.17;;;20.90;95.20;;;;;;5169563;23;20428;-82
2021/06/17 04:35:50;;;;;;;5.73;5.13;;;21.00;95.70;;;;;;5169483;23;20440;-83
2021/06/17 04:37:53;;;;;;;5.90;5.40;;;21.00;95.50;;;;;;5176733;23;20454;-83
2021/06/17 04:40:01;;;;;;;5.97;5.37;;;21.00;95.50;;;;;;5177247;22;20420;-82
2021/06/17 04:42:04;;;;;;;6.57;5.70;;;21.00;95.60;;;;;;5177541;22;20982;-83
2021/06/17 04:44:08;;;;;;;7.33;6.03;;;21.10;95.70;;;;;;5169587;23;20432;-82
2021/06/17 04:46:13;;;;;;;5.87;5.00;;;21.10;95.40;;;;;;5178553;23;20444;-81
2021/06/17 04:48:16;;;;;;;8.40;5.40;;;21.10;95.30;;;;;;5169813;23;20531;-82
2021/06/17 04:50:23;;;;;;;6.27;5.47;;;21.10;95.40;;;;;;5169142;23;20452;-82
2021/06/17 04:52:32;;;;;;;5.77;5.27;;;21.10;95.90;;;;;;5177438;22;20440;-82
2021/06/17 04:54:36;;;;;;;7.20;5.33;;;21.10;95.80;;;;;;5177265;23;20399;-82
2021/06/17 04:56:39;;;;;;;6.10;5.40;;;21.20;95.80;;;;;;5176274;23;20448;-83
2021/06/17 04:58:42;;;;;;;6.50;5.37;;;21.30;95.50;;;;;;5177641;23;20416;-82
2021/06/17 05:00:46;;;;;;;6.50;5.40;;;21.30;95.80;;;;;;5176805;22;20423;-82
2021/06/17 05:02:50;;;;;;;7.90;5.80;;;21.30;95.70;;;;;;5177479;23;20416;-84
2021/06/17 05:04:53;;;;;;;8.00;6.07;;;21.20;95.80;;;;;;5177788;22;20436;-84
2021/06/17 05:07:09;;;;;;;6.73;6.13;;;21.30;96.10;;;;;;5178971;23;20423;-84
2021/06/17 05:11:35;;;;;;;6.53;5.97;;;21.30;95.90;;;;;;5179511;22;20447;-84
2021/06/17 05:13:42;;;;;;;6.00;5.50;;;21.30;96.40;;;;;;5181504;22;20458;-85
2021/06/17 05:15:46;;;;;;;7.50;5.80;;;21.40;96.10;;;;;;5177938;23;20410;-84
2021/06/17 05:17:53;;;;;;;6.57;5.50;;;21.50;95.90;;;;;;5184480;22;20439;-85
2021/06/17 05:19:58;;;;;;;6.53;5.97;;;21.50;95.90;;;;;;5183757;23;20420;-81
2021/06/17 05:22:02;;;;;;;7.33;6.20;;;21.60;95.70;;;;;;5182916;22;20467;-85
2021/06/17 05:24:06;;;;;;;8.73;6.20;;;21.60;96.10;;;;;;5183129;22;20419;-84
2021/06/17 05:26:09;;;;;;;7.00;6.37;;;21.60;95.80;;;;;;5181876;22;20419;-85
2021/06/17 05:28:17;;;;;;;7.70;6.47;;;21.70;95.50;;;;;;5179376;22;20415;-85
2021/06/17 05:30:20;;;;;;;7.33;6.63;;;21.70;96.00;;;;;;5175944;22;20446;-85
2021/06/17 05:32:24;;;;;;;8.73;6.37;;;21.80;96.00;;;;;;5174956;22;20816;-86
2021/06/17 05:34:29;;;;;;;6.83;6.33;;;21.90;95.90;;;;;;5175016;23;20424;-83
2021/06/17 05:36:32;;;;;;;7.03;6.43;;;21.80;96.30;;;;;;5174316;22;20550;-84
2021/06/17 05:38:35;;;;;;;7.43;6.80;;;21.90;95.80;;;;;;5174597;22;20430;-82
2021/06/17 05:40:38;;;;;;;7.40;6.70;;;21.90;96.20;;;;;;5168635;22;20442;-82
2021/06/17 05:42:41;;;;;;;8.00;7.30;;;21.90;96.50;;;;;;5177140;22;20456;-82
2021/06/17 05:44:45;;;;;;;7.77;6.40;;;22.00;96.20;;;;;;5176958;23;20527;-81
2021/06/17 05:46:48;;;;;;;10.90;7.20;;;21.90;96.60;;;;;;5177544;22;20515;-83
2021/06/17 05:48:51;;;;;;;8.23;7.43;;;21.90;96.10;;;;;;5167551;23;20941;-83
2021/06/17 05:50:56;;;;;;;7.90;7.10;;;21.90;96.30;;;;;;5175822;22;20539;-82
2021/06/17 05:52:59;;;;;;;7.80;7.00;;;22.10;96.10;;;;;;5176128;23;20511;-82
2021/06/17 05:55:02;;;;;;;8.57;6.93;;;22.10;96.10;;;;;;5167705;23;20434;-82
2021/06/17 05:57:06;;;;;;;7.53;6.83;;;22.10;96.40;;;;;;5178997;23;20430;-82
2021/06/17 05:59:09;;;;;;;10.13;7.83;;;22.10;96.20;;;;;;5175386;22;20419;-82
2021/06/17 06:01:12;;;;;;;7.93;7.23;;;22.10;95.90;;;;;;5176452;22;20469;-82
2021/06/17 06:03:16;;;;;;;7.80;7.10;;;22.20;96.30;;;;;;5176145;22;20423;-82
2021/06/17 06:05:19;;;;;;;7.50;6.80;;;22.20;96.20;;;;;;5176584;23;20458;-82
2021/06/17 06:07:24;;;;;;;10.50;7.23;;;22.20;96.60;;;;;;5174581;22;20427;-81
2021/06/17 06:09:27;;;;;;;9.43;8.43;;;22.40;96.40;;;;;;5173965;22;20423;-81
2021/06/17 06:11:30;;;;;;;7.80;7.10;;;22.40;96.70;;;;;;5165202;22;20459;-80
2021/06/17 06:13:33;;;;;;;8.90;8.00;;;22.40;96.50;;;;;;5165768;23;20485;-81
2021/06/17 06:15:36;;;;;;;12.20;7.97;;;22.40;96.50;;;;;;5166020;23;20832;-80
2021/06/17 06:17:39;;;;;;;8.80;7.83;;;22.40;96.90;;;;;;5166199;23;20427;-80
2021/06/17 06:19:42;;;;;;;9.23;8.13;;;22.40;96.90;;;;;;5166675;23;20428;-81
2021/06/17 06:21:45;;;;;;;12.90;8.80;;;22.50;96.80;;;;;;5167725;22;20800;-80
2021/06/17 06:23:49;;;;;;;9.67;8.07;;;22.60;97.20;;;;;;5168011;23;20501;-81
2021/06/17 06:25:52;;;;;;;8.20;7.40;;;22.70;97.30;;;;;;5167820;23;20431;-82
2021/06/17 06:27:56;;;;;;;8.73;7.83;;;22.70;96.80;;;;;;5167647;23;20423;-83
2021/06/17 06:30:02;;;;;;;9.37;8.40;;;22.80;97.30;;;;;;5175826;22;20930;-84
2021/06/17 06:34:30;;;;;;;10.47;7.90;;;23.00;97.20;;;;;;5176816;22;20434;-84
2021/06/17 06:36:33;;;;;;;10.03;9.03;;;23.10;97.50;;;;;;5177000;22;20423;-83
2021/06/17 06:38:36;;;;;;;8.90;8.10;;;23.20;96.50;;;;;;5177066;23;20456;-83
2021/06/17 06:40:41;;;;;;;9.10;8.03;;;23.20;96.20;;;;;;5176918;22;20988;-84
2021/06/17 06:42:44;;;;;;;9.37;8.50;;;23.20;96.70;;;;;;5176866;22;20430;-86
2021/06/17 06:44:47;;;;;;;10.50;8.87;;;23.20;96.20;;;;;;5176826;23;20499;-84
2021/06/17 06:46:53;;;;;;;10.67;8.63;;;23.30;96.10;;;;;;5176553;22;20771;-86
2021/06/17 06:48:56;;;;;;;9.90;8.40;;;23.30;96.70;;;;;;5176687;23;20896;-85
2021/06/17 06:50:59;;;;;;;10.30;8.47;;;23.40;96.60;;;;;;5177868;22;20458;-86
2021/06/17 06:53:02;;;;;;;9.30;8.40;;;23.60;96.50;;;;;;5177233;22;20430;-84
2021/06/17 06:55:07;;;;;;;8.73;8.03;;;23.60;96.40;;;;;;5177253;22;20424;-83
2021/06/17 06:57:11;;;;;;;27.80;9.93;;;23.70;96.20;;;;;;5177171;23;20826;-83
2021/06/17 06:59:14;;;;;;;11.03;8.60;;;23.90;96.00;;;;;;5177156;22;20430;-85
2021/06/17 07:01:17;;;;;;;10.87;8.90;;;23.90;95.50;;;;;;5177132;22;20530;-85
2021/06/17 07:03:20;;;;;;;12.43;8.40;;;24.00;95.40;;;;;;5177721;23;20426;-83
2021/06/17 07:05:24;;;;;;;9.83;8.97;;;24.00;95.40;;;;;;5177684;22;20424;-83
2021/06/17 07:07:27;;;;;;;11.70;9.03;;;24.10;95.20;;;;;;5177239;23;20426;-86
2021/06/17 07:09:30;;;;;;;9.47;8.53;;;24.10;95.10;;;;;;5177479;22;20424;-83
2021/06/17 07:11:33;;;;;;;10.93;9.90;;;24.20;95.20;;;;;;5177275;22;20443;-85
2021/06/17 07:13:37;;;;;;;10.80;9.60;;;24.20;94.90;;;;;;5177589;23;20419;-83
2021/06/17 07:15:40;;;;;;;9.80;8.80;;;24.30;95.20;;;;;;5177401;23;20440;-84
2021/06/17 07:17:44;;;;;;;8.90;8.10;;;24.40;94.60;;;;;;5176861;22;20430;-84
2021/06/17 07:19:47;;;;;;;10.00;9.00;;;24.40;94.70;;;;;;5177128;22;20447;-84
2021/06/17 07:21:50;;;;;;;9.33;8.53;;;24.60;94.30;;;;;;5177480;22;21133;-84
2021/06/17 07:23:53;;;;;;;10.03;9.10;;;24.60;94.30;;;;;;5177008;22;21194;-84
2021/06/17 07:25:56;;;;;;;9.73;8.80;;;24.70;94.50;;;;;;5177044;22;20897;-84
2021/06/17 07:27:59;;;;;;;12.13;9.40;;;24.80;94.20;;;;;;5177031;23;20420;-83
2021/06/17 07:30:05;;;;;;;9.47;8.57;;;24.90;94.40;;;;;;5176985;23;20424;-84
2021/06/17 07:32:08;;;;;;;11.27;10.20;;;25.00;93.90;;;;;;5176080;22;20527;-84
2021/06/17 07:34:12;;;;;;;9.87;9.00;;;25.00;94.10;;;;;;5177038;23;20743;-84
2021/06/17 07:36:15;;;;;;;10.07;9.07;;;25.10;93.90;;;;;;5176684;22;20762;-84
2021/06/17 07:38:18;;;;;;;10.63;9.70;;;25.20;93.80;;;;;;5176234;22;20434;-84
2021/06/17 07:40:21;;;;;;;11.10;10.20;;;25.30;93.90;;;;;;5177331;23;20499;-84
2021/06/17 07:42:25;;;;;;;10.60;9.63;;;25.50;93.70;;;;;;5176982;22;20526;-84
2021/06/17 07:44:28;;;;;;;9.73;8.93;;;25.60;93.10;;;;;;5176298;22;20536;-86
2021/06/17 07:46:33;;;;;;;11.63;9.47;;;25.60;93.00;;;;;;5176467;22;20430;-84
2021/06/17 07:48:38;;;;;;;10.17;9.17;;;25.60;92.80;;;;;;5176673;22;20522;-85
2021/06/17 07:50:42;;;;;;;9.63;8.63;;;25.70;93.30;;;;;;5176888;22;20423;-84
2021/06/17 07:52:45;;;;;;;10.60;9.70;;;25.90;93.30;;;;;;5177208;23;20439;-84
2021/06/17 07:54:48;;;;;;;9.70;8.80;;;26.00;93.00;;;;;;5177040;22;20502;-84
2021/06/17 07:56:51;;;;;;;11.47;9.70;;;26.00;92.30;;;;;;5176967;22;20423;-84
2021/06/17 07:58:54;;;;;;;9.70;8.83;;;26.00;92.50;;;;;;5176937;22;20424;-85
2021/06/17 08:00:57;;;;;;;10.70;8.67;;;26.00;92.00;;;;;;5177220;22;20446;-84
2021/06/17 08:03:04;;;;;;;10.30;9.30;;;26.00;91.90;;;;;;5176814;22;20506;-84
2021/06/17 08:05:08;;;;;;;12.17;9.80;;;26.10;91.90;;;;;;5177242;22;20423;-85
2021/06/17 08:07:12;;;;;;;12.97;10.10;;;26.20;92.00;;;;;;5176879;22;20424;-84
2021/06/17 08:09:18;;;;;;;10.77;9.40;;;26.40;91.80;;;;;;5176557;23;20423;-85
2021/06/17 08:11:21;;;;;;;10.33;9.53;;;26.60;91.00;;;;;;5176411;22;20440;-84
2021/06/17 08:13:42;;;;;;;13.60;12.30;;;26.50;91.20;;;;;;5177316;23;20435;-85
2021/06/17 08:15:46;;;;;;;10.53;9.63;;;26.70;91.30;;;;;;5177294;23;20452;-84
2021/06/17 08:17:49;;;;;;;9.93;9.23;;;26.80;91.10;;;;;;5176631;23;20749;-85
2021/06/17 08:19:53;;;;;;;11.00;9.93;;;26.90;91.30;;;;;;5177058;22;20430;-84
2021/06/17 08:21:57;;;;;;;12.00;9.20;;;27.10;89.90;;;;;;5176865;22;20468;-85
2021/06/17 08:24:00;;;;;;;10.40;9.60;;;27.10;90.20;;;;;;5176695;22;20431;-86
2021/06/17 08:26:04;;;;;;;9.73;8.83;;;27.10;89.50;;;;;;5177205;23;20443;-85
2021/06/17 08:28:07;;;;;;;16.43;9.60;;;27.10;90.10;;;;;;5177173;22;20830;-85
2021/06/17 08:30:14;;;;;;;11.37;10.27;;;27.20;89.40;;;;;;5176735;22;20427;-84
2021/06/17 08:32:17;;;;;;;11.03;10.10;;;27.10;89.30;;;;;;5175046;22;20739;-84
2021/06/17 08:34:23;;;;;;;9.87;8.87;;;27.20;89.60;;;;;;5174830;23;20440;-84
2021/06/17 08:36:28;;;;;;;10.47;9.50;;;27.30;90.00;;;;;;5174434;23;20412;-84
2021/06/17 08:38:31;;;;;;;11.70;9.33;;;27.40;89.70;;;;;;5165895;23;20821;-85
2021/06/17 08:40:34;;;;;;;9.93;9.00;;;27.50;89.80;;;;;;5165976;22;20734;-84
2021/06/17 08:42:38;;;;;;;10.83;9.83;;;27.60;89.30;;;;;;5173900;22;20474;-84
2021/06/17 08:44:41;;;;;;;25.87;11.47;;;27.80;89.30;;;;;;5168490;23;20984;-84
2021/06/17 08:46:44;;;;;;;10.73;9.80;;;27.80;89.10;;;;;;5178887;23;20435;-84
2021/06/17 08:48:48;;;;;;;10.10;9.30;;;27.90;88.80;;;;;;5177468;22;20423;-85
2021/06/17 08:50:53;;;;;;;10.20;9.30;;;27.90;88.40;;;;;;5179990;22;20531;-83
2021/06/17 08:52:58;;;;;;;10.83;9.73;;;28.00;88.60;;;;;;5169039;23;20511;-85
2021/06/17 08:55:16;;;;;;;11.33;9.83;;;28.00;88.40;;;;;;5175199;23;20442;-84
2021/06/17 08:57:19;;;;;;;10.27;9.37;;;28.10;88.90;;;;;;5166429;23;20412;-84
2021/06/17 08:59:31;;;;;;;10.50;9.50;;;28.20;87.80;;;;;;5174232;23;20491;-84
2021/06/17 09:01:34;;;;;;;10.03;9.23;;;28.30;88.10;;;;;;5174510;22;20514;-83
2021/06/17 09:03:39;;;;;;;11.53;10.33;;;28.30;88.00;;;;;;5165992;23;20477;-84
2021/06/17 09:05:43;;;;;;;10.80;9.87;;;28.50;88.40;;;;;;5165698;23;20419;-84
2021/06/17 09:07:47;;;;;;;10.20;9.23;;;28.70;87.20;;;;;;5166159;23;20427;-84
2021/06/17 09:09:55;;;;;;;12.80;9.30;;;28.70;85.70;;;;;;5166186;23;20424;-85
2021/06/17 09:11:58;;;;;;;11.03;9.63;;;28.60;86.00;;;;;;5174293;22;20472;-85
2021/06/17 09:14:17;;;;;;;10.67;9.70;;;28.80;86.60;;;;;;5179928;23;20438;-84
2021/06/17 09:16:27;;;;;;;10.37;9.30;;;29.00;86.70;;;;;;5176029;23;20436;-84
2021/06/17 09:18:32;;;;;;;10.63;9.70;;;28.90;87.00;;;;;;5175039;23;20739;-84
2021/06/17 09:20:35;;;;;;;9.80;8.90;;;29.10;86.30;;;;;;5166599;22;20773;-84
2021/06/17 09:22:39;;;;;;;10.13;9.20;;;29.20;86.20;;;;;;5167905;23;20503;-84
2021/06/17 09:24:44;;;;;;;11.63;9.50;;;29.10;86.20;;;;;;5167643;23;20439;-85
2021/06/17 09:26:48;;;;;;;11.17;10.13;;;29.10;85.80;;;;;;5183734;23;20490;-83
2021/06/17 09:28:55;;;;;;;10.60;9.57;;;29.20;86.50;;;;;;5193371;23;20438;-83
2021/06/17 09:31:00;;;;;;;10.83;9.40;;;29.30;85.80;;;;;;5194329;22;20503;-83
2021/06/17 09:33:10;;;;;;;10.40;9.60;;;29.50;83.70;;;;;;5196205;22;20495;-83
2021/06/17 09:35:15;;;;;;;11.53;9.87;;;29.50;84.00;;;;;;5196394;22;20380;-83
2021/06/17 09:37:36;;;;;;;10.70;9.77;;;29.60;84.80;;;;;;5196615;22;20397;-83
2021/06/17 09:39:39;;;;;;;9.63;8.73;;;29.60;84.40;;;;;;5195511;22;20421;-84
2021/06/17 09:41:44;;;;;;;10.30;9.40;;;29.70;84.50;;;;;;5176276;22;20450;-84
2021/06/17 09:43:49;;;;;;;10.33;9.53;;;29.70;85.30;;;;;;5175878;23;20443;-84
2021/06/17 09:46:00;;;;;;;10.13;8.80;;;29.70;84.40;;;;;;5175072;23;20416;-84
2021/06/17 09:48:04;;;;;;;10.30;9.40;;;29.70;84.80;;;;;;5173700;22;20415;-84
2021/06/17 09:50:20;;;;;;;11.03;9.50;;;29.90;84.70;;;;;;5174415;23;20423;-84
2021/06/17 09:52:38;;;;;;;10.20;9.20;;;29.90;83.80;;;;;;5165977;22;20451;-84
2021/06/17 09:54:42;;;;;;;12.73;8.77;;;30.00;83.40;;;;;;5165626;23;20475;-84
2021/06/17 09:56:52;;;;;;;12.00;9.33;;;30.00;84.00;;;;;;5174236;23;20415;-85
2021/06/17 09:58:57;;;;;;;10.80;9.90;;;30.10;84.00;;;;;;5174137;23;20915;-84
2021/06/17 10:01:01;;;;;;;10.47;9.60;;;30.20;83.40;;;;;;5165182;22;20797;-85
2021/06/17 10:03:17;;;;;;;9.63;8.80;;;30.20;83.40;;;;;;5173463;22;20430;-84
2021/06/17 10:05:22;;;;;;;10.47;9.57;;;30.10;82.90;;;;;;5173599;23;20491;-84
2021/06/17 10:07:25;;;;;;;9.93;9.00;;;30.10;83.00;;;;;;5164909;23;20502;-84
2021/06/17 10:09:28;;;;;;;10.00;9.10;;;30.10;83.50;;;;;;5173713;23;20501;-85
2021/06/17 10:11:32;;;;;;;10.63;8.90;;;30.20;83.30;;;;;;5165552;22;20454;-84
2021/06/17 10:13:35;;;;;;;10.37;9.40;;;30.40;82.70;;;;;;5165591;23;20536;-84
2021/06/17 10:15:40;;;;;;;10.30;9.40;;;30.60;83.00;;;;;;5165456;23;21320;-84
2021/06/17 10:17:43;;;;;;;13.00;9.00;;;30.70;82.20;;;;;;5173879;23;20830;-84
2021/06/17 10:19:47;;;;;;;10.80;9.90;;;30.60;81.80;;;;;;5173412;23;21057;-84
2021/06/17 10:21:50;;;;;;;11.23;10.23;;;30.80;82.00;;;;;;5173344;22;20471;-84
2021/06/17 10:23:54;;;;;;;13.50;10.63;;;30.80;81.40;;;;;;5173569;23;20420;-84
2021/06/17 10:26:05;;;;;;;10.33;9.43;;;31.00;81.70;;;;;;5173759;23;20759;-85
2021/06/17 10:28:08;;;;;;;11.23;10.13;;;30.90;81.30;;;;;;5173266;23;20396;-84
2021/06/17 10:30:12;;;;;;;10.30;9.33;;;30.80;81.70;;;;;;5173716;23;20908;-84
2021/06/17 10:32:17;;;;;;;13.47;9.37;;;30.90;81.70;;;;;;5164829;22;20530;-84
2021/06/17 10:34:40;;;;;;;9.60;8.70;;;31.00;80.20;;;;;;5165210;23;20432;-84
2021/06/17 10:37:09;;;;;;;11.90;9.40;;;30.90;79.70;;;;;;5165294;23;20494;-84
2021/06/17 10:39:17;;;;;;;11.70;8.80;;;31.00;79.90;;;;;;5173239;23;20442;-84
2021/06/17 10:41:20;;;;;;;10.10;9.17;;;31.20;79.60;;;;;;5173720;22;20504;-84
2021/06/17 10:43:25;;;;;;;9.07;8.27;;;31.20;79.40;;;;;;5173987;23;21101;-84
2021/06/17 10:45:39;;;;;;;10.27;9.37;;;31.50;78.70;;;;;;5173345;23;20423;-85
2021/06/17 10:47:55;;;;;;;9.93;8.97;;;31.60;77.80;;;;;;5173382;23;20427;-85
2021/06/17 10:50:06;;;;;;;9.43;8.57;;;31.70;78.50;;;;;;5173838;23;20406;-85
2021/06/17 10:52:25;;;;;;;9.10;8.27;;;31.60;78.20;;;;;;5165228;22;20451;-85
2021/06/17 10:54:58;;;;;;;10.77;9.80;;;31.50;77.80;;;;;;5165195;23;20443;-84